createdAt,value
2019-03-27T00:02:12.282Z,164664.66
2019-03-27T00:04:41.977Z,164699.30
2019-03-27T00:07:11.042Z,164699.30
2019-03-27T00:09:39.958Z,164705.97
2019-03-27T00:12:08.947Z,164729.94
2019-03-27T00:14:38.278Z,164719.28
2019-03-27T00:17:07.757Z,164673.98
2019-03-27T00:19:37.612Z,164689.98
2019-03-27T00:22:06.649Z,164716.64
2019-03-27T00:24:35.680Z,164708.67
2019-03-27T00:27:44.417Z,164719.28
2019-03-27T00:30:13.889Z,164689.98
2019-03-27T00:32:42.836Z,164687.28
2019-03-27T00:35:11.903Z,164693.97
2019-03-27T00:37:41.881Z,164646.03
2019-03-27T00:40:11.330Z,164636.72
2019-03-27T00:42:40.887Z,164648.67
2019-03-27T00:45:11.012Z,164644.69
2019-03-27T00:47:41.153Z,164655.34
2019-03-27T00:50:10.702Z,164656.64
2019-03-27T00:52:40.067Z,164647.33
2019-03-27T00:55:10.250Z,164646.03
2019-03-27T00:57:40.068Z,164644.69
2019-03-27T01:00:26.040Z,164631.37
2019-03-27T01:02:55.482Z,164628.69
2019-03-27T01:05:24.391Z,164618.09
2019-03-27T01:07:53.449Z,164635.37
2019-03-27T01:10:22.352Z,164610.06
2019-03-27T01:12:51.254Z,164604.72
2019-03-27T01:15:20.238Z,164612.75
2019-03-27T01:17:49.250Z,164603.44
2019-03-27T01:20:18.208Z,164594.13
2019-03-27T01:22:47.172Z,164612.75
2019-03-27T01:25:16.102Z,164588.78
2019-03-27T01:27:45.128Z,164596.75
2019-03-27T01:30:14.770Z,164594.13
2019-03-27T01:32:43.692Z,164623.36
2019-03-27T01:35:12.905Z,164636.72
2019-03-27T01:37:41.984Z,164615.39
2019-03-27T01:40:11.078Z,164628.69
2019-03-27T01:42:40.027Z,164639.36
2019-03-27T01:45:09.561Z,164642.05
2019-03-27T01:47:38.677Z,164606.08
2019-03-27T01:50:08.773Z,164636.72
2019-03-27T01:52:37.801Z,164612.75
2019-03-27T01:55:06.872Z,164631.37
2019-03-27T01:57:35.807Z,164612.75
2019-03-27T02:00:06.321Z,164610.06
2019-03-27T02:02:35.245Z,164634.03
2019-03-27T02:05:04.434Z,164626.06
2019-03-27T02:07:33.341Z,164596.75
2019-03-27T02:10:02.244Z,164615.39
2019-03-27T02:12:31.251Z,164644.69
2019-03-27T02:15:00.716Z,164615.39
2019-03-27T02:17:30.027Z,164610.06
2019-03-27T02:19:59.067Z,164650.02
2019-03-27T02:22:27.945Z,164644.69
2019-03-27T02:24:56.956Z,164636.72
2019-03-27T02:27:26.119Z,164654.00
2019-03-27T02:29:55.070Z,164654.00
2019-03-27T02:32:23.948Z,164657.98
2019-03-27T02:34:52.888Z,164620.72
2019-03-27T02:37:21.933Z,164650.02
2019-03-27T02:39:51.207Z,164624.70
2019-03-27T02:42:20.448Z,164646.03
2019-03-27T02:44:49.491Z,164654.00
2019-03-27T02:47:18.497Z,164632.69
2019-03-27T02:49:47.613Z,164630.03
2019-03-27T02:52:16.497Z,164663.31
2019-03-27T02:54:45.423Z,164648.67
2019-03-27T02:57:14.554Z,164671.30
2019-03-27T02:59:43.517Z,164661.97
2019-03-27T03:02:12.587Z,164687.28
2019-03-27T03:04:42.018Z,164684.64
2019-03-27T03:07:10.906Z,164657.98
2019-03-27T03:09:39.838Z,164631.37
2019-03-27T03:12:08.747Z,164647.33
2019-03-27T03:14:39.523Z,164671.30
2019-03-27T03:17:08.574Z,164703.34
2019-03-27T03:19:37.579Z,164676.63
2019-03-27T03:22:06.727Z,164679.31
2019-03-27T03:24:35.640Z,164675.33
2019-03-27T03:27:04.648Z,164684.64
2019-03-27T03:29:33.547Z,164663.31
2019-03-27T03:32:02.599Z,164703.34
2019-03-27T03:34:31.593Z,164681.95
2019-03-27T03:37:00.522Z,164684.64
2019-03-27T03:39:29.650Z,164681.95
2019-03-27T03:41:58.638Z,164679.31
2019-03-27T03:44:27.621Z,164684.64
2019-03-27T03:46:59.892Z,164685.94
2019-03-27T03:49:27.819Z,164695.25
2019-03-27T03:51:57.614Z,164709.97
2019-03-27T03:54:27.147Z,164699.30
2019-03-27T03:56:58.469Z,164673.98
2019-03-27T03:59:29.295Z,164673.98
2019-03-27T04:02:02.816Z,164689.98
2019-03-27T04:04:35.104Z,164681.95
2019-03-27T04:07:05.003Z,164684.64
2019-03-27T04:09:33.952Z,164679.31
2019-03-27T04:12:02.912Z,164664.66
2019-03-27T04:14:31.990Z,164630.03
2019-03-27T04:17:16.172Z,164655.34
2019-03-27T04:19:31.755Z,164652.66
2019-03-27T04:22:00.698Z,164667.31
2019-03-27T04:24:30.256Z,164646.03
2019-03-27T04:26:59.192Z,164652.66
2019-03-27T04:29:28.140Z,164671.30
2019-03-27T04:31:57.728Z,164663.31
2019-03-27T04:34:26.647Z,164659.34
2019-03-27T04:36:55.713Z,164646.03
2019-03-27T04:39:24.702Z,164671.30
2019-03-27T04:41:53.632Z,164679.31
2019-03-27T04:44:22.577Z,164661.97
2019-03-27T04:46:51.663Z,164647.33
2019-03-27T04:49:21.634Z,164655.34
2019-03-27T04:51:50.673Z,164670.00
2019-03-27T04:54:19.687Z,164660.69
2019-03-27T04:56:48.713Z,164655.34
2019-03-27T04:59:17.659Z,164639.36
2019-03-27T05:01:46.636Z,164657.98
2019-03-27T05:04:15.754Z,164673.98
2019-03-27T05:06:44.641Z,164676.63
2019-03-27T05:09:13.711Z,164643.34
2019-03-27T05:11:43.077Z,164666.02
2019-03-27T05:14:12.064Z,164663.31
2019-03-27T05:16:41.021Z,164685.94
2019-03-27T05:19:09.978Z,164677.97
2019-03-27T05:21:39.006Z,164659.34
2019-03-27T05:24:07.963Z,164681.95
2019-03-27T05:26:37.021Z,164687.28
2019-03-27T05:29:06.046Z,164689.98
2019-03-27T05:31:35.017Z,164714.00
2019-03-27T05:34:04.249Z,164715.30
2019-03-27T05:36:33.310Z,164720.63
2019-03-27T05:39:03.901Z,164733.94
2019-03-27T05:41:32.843Z,164729.94
2019-03-27T05:44:01.800Z,164724.61
2019-03-27T05:46:30.838Z,164756.61
2019-03-27T05:48:59.781Z,164757.91
2019-03-27T05:51:29.565Z,164749.94
2019-03-27T05:53:58.607Z,164761.94
2019-03-27T05:56:28.038Z,164771.25
2019-03-27T05:58:57.594Z,164764.58
2019-03-27T06:01:26.501Z,164783.22
2019-03-27T06:03:55.591Z,164788.56
2019-03-27T06:06:24.592Z,164781.88
2019-03-27T06:08:53.636Z,164779.23
2019-03-27T06:11:22.686Z,164793.89
2019-03-27T06:13:52.065Z,164799.22
2019-03-27T06:16:21.168Z,164795.23
2019-03-27T06:18:50.101Z,164839.14
2019-03-27T06:21:19.044Z,164820.50
2019-03-27T06:23:48.033Z,164825.84
2019-03-27T06:26:17.094Z,164849.81
2019-03-27T06:28:46.062Z,164876.48
2019-03-27T06:31:15.039Z,164873.80
2019-03-27T06:33:44.038Z,164900.47
2019-03-27T06:36:13.034Z,164869.81
2019-03-27T06:38:41.987Z,164889.80
2019-03-27T06:41:10.931Z,164917.77
2019-03-27T06:43:40.183Z,164908.44
2019-03-27T06:46:09.194Z,164919.13
2019-03-27T06:48:38.136Z,164937.77
2019-03-27T06:51:07.073Z,164949.73
2019-03-27T06:53:36.195Z,164968.44
2019-03-27T06:56:05.203Z,164981.75
2019-03-27T06:58:34.286Z,164979.05
2019-03-27T07:01:03.164Z,165004.37
2019-03-27T07:03:32.608Z,165013.72
2019-03-27T07:06:01.881Z,165043.03
2019-03-27T07:08:30.794Z,165055.06
2019-03-27T07:11:00.151Z,165063.03
2019-03-27T07:13:29.061Z,165060.34
2019-03-27T07:15:58.481Z,165089.67
2019-03-27T07:18:39.446Z,165076.36
2019-03-27T07:20:58.360Z,165105.69
2019-03-27T07:23:27.271Z,165076.36
2019-03-27T07:25:56.196Z,165135.03
2019-03-27T07:28:25.125Z,165141.70
2019-03-27T07:30:55.774Z,165115.02
2019-03-27T07:33:25.419Z,165109.67
2019-03-27T07:35:54.320Z,165111.03
2019-03-27T07:38:23.393Z,165132.33
2019-03-27T07:40:52.339Z,165167.00
2019-03-27T07:43:21.283Z,165156.31
2019-03-27T07:45:50.403Z,165167.00
2019-03-27T07:48:19.411Z,165205.67
2019-03-27T07:50:48.478Z,165239.00
2019-03-27T07:53:22.218Z,165255.03
2019-03-27T07:55:50.522Z,165279.03
2019-03-27T07:58:19.775Z,165279.03
2019-03-27T08:00:48.836Z,165317.70
2019-03-27T08:03:18.247Z,165289.70
2019-03-27T08:05:47.259Z,165388.44
2019-03-27T08:08:16.377Z,165412.45
2019-03-27T08:10:45.536Z,165415.14
2019-03-27T08:13:14.490Z,165420.48
2019-03-27T08:15:43.429Z,165504.53
2019-03-27T08:18:12.504Z,165487.19
2019-03-27T08:20:41.573Z,165552.56
2019-03-27T08:23:10.927Z,165563.25
2019-03-27T08:25:39.966Z,165555.27
2019-03-27T08:28:09.318Z,165615.30
2019-03-27T08:30:38.651Z,165723.45
2019-03-27T08:33:07.876Z,165723.45
2019-03-27T08:35:36.733Z,165767.47
2019-03-27T08:38:05.810Z,165744.78
2019-03-27T08:40:34.681Z,165786.22
2019-03-27T08:43:04.801Z,165702.06
2019-03-27T08:45:33.783Z,165739.44
2019-03-27T08:48:02.731Z,165734.09
2019-03-27T08:50:31.777Z,165714.11
2019-03-27T08:53:00.925Z,165735.44
2019-03-27T08:55:31.176Z,165826.25
2019-03-27T08:58:01.731Z,165858.37
2019-03-27T09:00:48.468Z,165885.06
2019-03-27T09:03:17.900Z,165830.23
2019-03-27T09:05:47.212Z,165873.06
2019-03-27T09:08:16.287Z,165871.72
2019-03-27T09:10:45.543Z,165913.11
2019-03-27T09:13:14.836Z,165937.16
2019-03-27T09:15:45.523Z,165966.55
2019-03-27T09:18:16.912Z,165887.77
2019-03-27T09:20:45.725Z,165843.69
2019-03-27T09:23:14.961Z,165871.72
2019-03-27T09:25:43.897Z,165869.03
2019-03-27T09:28:12.865Z,165881.06
2019-03-27T09:30:41.881Z,165938.50
2019-03-27T09:33:10.882Z,165934.50
2019-03-27T09:35:39.796Z,165963.91
2019-03-27T09:38:08.846Z,165925.16
2019-03-27T09:40:37.745Z,165893.06
2019-03-27T09:43:06.959Z,165922.47
2019-03-27T09:45:36.259Z,165951.84
2019-03-27T09:48:05.302Z,165929.16
2019-03-27T09:50:34.317Z,165949.20
2019-03-27T09:53:03.342Z,165954.55
2019-03-27T09:55:32.259Z,165942.50
2019-03-27T09:58:01.305Z,165978.59
2019-03-27T10:01:08.342Z,165977.25
2019-03-27T10:03:37.280Z,166048.05
2019-03-27T10:06:06.831Z,166014.66
2019-03-27T10:08:35.967Z,165970.55
2019-03-27T10:11:04.899Z,165947.86
2019-03-27T10:13:33.875Z,166006.66
2019-03-27T10:16:02.817Z,165978.59
2019-03-27T10:18:31.720Z,166003.95
2019-03-27T10:21:00.817Z,166069.45
2019-03-27T10:23:29.665Z,166046.69
2019-03-27T10:25:58.645Z,166029.34
2019-03-27T10:28:27.545Z,166065.45
2019-03-27T10:30:56.495Z,166032.05
2019-03-27T10:33:25.539Z,166058.75
2019-03-27T10:35:54.790Z,166057.41
2019-03-27T10:38:23.666Z,166113.56
2019-03-27T10:40:52.635Z,166148.27
2019-03-27T10:43:21.508Z,166158.97
2019-03-27T10:45:50.982Z,166133.56
2019-03-27T10:48:19.906Z,166185.73
2019-03-27T10:50:48.909Z,166251.27
2019-03-27T10:53:17.841Z,166288.69
2019-03-27T10:55:46.721Z,166220.45
2019-03-27T10:58:16.112Z,166224.50
2019-03-27T11:00:45.045Z,166298.05
2019-03-27T11:03:14.008Z,166284.69
2019-03-27T11:05:42.931Z,166248.63
2019-03-27T11:08:11.948Z,166181.69
2019-03-27T11:10:40.965Z,166142.97
2019-03-27T11:13:10.077Z,166125.56
2019-03-27T11:15:39.253Z,166207.09
2019-03-27T11:18:08.168Z,166197.73
2019-03-27T11:20:37.134Z,166073.45
2019-03-27T11:23:06.088Z,166125.56
2019-03-27T11:25:35.167Z,166153.63
2019-03-27T11:28:04.095Z,166086.81
2019-03-27T11:30:41.574Z,166104.20
2019-03-27T11:33:11.776Z,166104.20
2019-03-27T11:35:40.933Z,166172.33
2019-03-27T11:38:09.932Z,166187.03
2019-03-27T11:40:38.789Z,166276.69
2019-03-27T11:43:07.851Z,166276.69
2019-03-27T11:45:36.815Z,166231.16
2019-03-27T11:48:08.170Z,166299.41
2019-03-27T11:50:44.791Z,166390.33
2019-03-27T11:53:08.271Z,166427.77
2019-03-27T11:55:37.347Z,166421.11
2019-03-27T11:58:06.684Z,166435.81
2019-03-27T12:00:35.590Z,166363.59
2019-03-27T12:03:04.996Z,166351.53
2019-03-27T12:05:34.789Z,166323.47
2019-03-27T12:08:03.799Z,166339.53
2019-03-27T12:10:32.820Z,166295.41
2019-03-27T12:13:01.764Z,166290.05
2019-03-27T12:15:55.962Z,166306.11
2019-03-27T12:18:25.299Z,166358.25
2019-03-27T12:20:59.325Z,166331.47
2019-03-27T12:23:25.151Z,166347.53
2019-03-27T12:25:55.350Z,166374.31
2019-03-27T12:28:24.503Z,166439.83
2019-03-27T12:30:53.612Z,166352.89
2019-03-27T12:33:22.632Z,166367.59
2019-03-27T12:35:51.593Z,166314.11
2019-03-27T12:38:20.464Z,166295.41
2019-03-27T12:40:49.700Z,166213.80
2019-03-27T12:43:18.597Z,166177.69
2019-03-27T12:45:47.506Z,166205.73
2019-03-27T12:48:17.257Z,166157.63
2019-03-27T12:50:46.293Z,166118.91
2019-03-27T12:53:15.593Z,166098.86
2019-03-27T12:55:44.514Z,166096.16
2019-03-27T12:58:13.433Z,166114.86
2019-03-27T13:00:42.492Z,166070.80
2019-03-27T13:03:11.526Z,166037.34
2019-03-27T13:05:40.668Z,166036.05
2019-03-27T13:08:09.594Z,166053.41
2019-03-27T13:10:38.698Z,166050.75
2019-03-27T13:13:07.631Z,166069.45
2019-03-27T13:15:36.990Z,166021.34
2019-03-27T13:18:05.989Z,166033.34
2019-03-27T13:20:35.018Z,166064.09
2019-03-27T13:23:03.963Z,166066.75
2019-03-27T13:25:33.368Z,166062.75
2019-03-27T13:28:02.315Z,166040.05
2019-03-27T13:30:31.430Z,166030.69
2019-03-27T13:33:00.565Z,166054.75
2019-03-27T13:35:29.565Z,166037.34
2019-03-27T13:37:58.532Z,166048.05
2019-03-27T13:40:27.727Z,166117.56
2019-03-27T13:42:57.150Z,166101.50
2019-03-27T13:45:26.167Z,166049.41
2019-03-27T13:47:55.240Z,166029.34
2019-03-27T13:50:24.177Z,166056.09
2019-03-27T13:52:53.132Z,166068.09
2019-03-27T13:55:23.418Z,166121.56
2019-03-27T13:57:52.412Z,166090.80
2019-03-27T14:00:22.031Z,166069.45
2019-03-27T14:02:51.014Z,166042.70
2019-03-27T14:05:19.925Z,166018.64
2019-03-27T14:07:49.190Z,165995.94
2019-03-27T14:10:19.683Z,165993.30
2019-03-27T14:12:48.617Z,165981.25
2019-03-27T14:15:18.563Z,165973.25
2019-03-27T14:17:47.558Z,165954.55
2019-03-27T14:20:18.930Z,165951.84
2019-03-27T14:22:47.851Z,165939.84
2019-03-27T14:25:17.119Z,165850.33
2019-03-27T14:27:46.047Z,165903.77
2019-03-27T14:30:28.315Z,165905.11
2019-03-27T14:32:57.675Z,165854.33
2019-03-27T14:35:26.631Z,165859.69
2019-03-27T14:37:55.707Z,165838.34
2019-03-27T14:40:24.702Z,165839.63
2019-03-27T14:42:53.610Z,165834.34
2019-03-27T14:45:23.192Z,165815.55
2019-03-27T14:47:52.441Z,165798.20
2019-03-27T14:50:21.527Z,165836.98
2019-03-27T14:52:50.480Z,165804.91
2019-03-27T14:55:19.383Z,165754.13
2019-03-27T14:57:48.388Z,165803.56
2019-03-27T15:00:17.510Z,165810.25
2019-03-27T15:02:47.125Z,165772.81
2019-03-27T15:05:16.434Z,165731.44
2019-03-27T15:07:45.667Z,165751.48
2019-03-27T15:10:15.036Z,165739.44
2019-03-27T15:12:44.001Z,165764.83
2019-03-27T15:15:14.765Z,165728.80
2019-03-27T15:17:43.805Z,165719.41
2019-03-27T15:20:13.641Z,165776.88
2019-03-27T15:22:43.129Z,165732.80
2019-03-27T15:25:12.333Z,165726.09
2019-03-27T15:27:41.247Z,165751.48
2019-03-27T15:30:12.872Z,165727.45
2019-03-27T15:32:42.378Z,165711.41
2019-03-27T15:35:11.642Z,165692.72
2019-03-27T15:37:40.575Z,165716.75
2019-03-27T15:40:10.183Z,165708.77
2019-03-27T15:42:39.779Z,165720.75
2019-03-27T15:45:12.844Z,165695.38
2019-03-27T15:47:41.820Z,165700.72
2019-03-27T15:50:10.971Z,165687.38
2019-03-27T15:52:40.268Z,165711.41
2019-03-27T15:55:09.438Z,165674.05
2019-03-27T15:57:38.345Z,165672.69
2019-03-27T16:00:10.119Z,165672.69
2019-03-27T16:02:39.052Z,165694.08
2019-03-27T16:05:08.077Z,165672.69
2019-03-27T16:07:37.130Z,165675.39
2019-03-27T16:10:06.535Z,165687.38
2019-03-27T16:12:36.427Z,165674.05
2019-03-27T16:15:06.014Z,165660.70
2019-03-27T16:17:35.053Z,165656.66
2019-03-27T16:20:04.220Z,165662.00
2019-03-27T16:22:34.039Z,165666.05
2019-03-27T16:25:03.160Z,165639.31
2019-03-27T16:27:32.690Z,165631.33
2019-03-27T16:30:02.799Z,165631.33
2019-03-27T16:32:31.735Z,165650.00
2019-03-27T16:35:00.877Z,165644.67
2019-03-27T16:37:30.020Z,165658.00
2019-03-27T16:39:58.935Z,165647.31
2019-03-27T16:42:28.068Z,165644.67
2019-03-27T16:44:58.825Z,165650.00
2019-03-27T16:47:27.842Z,165651.36
2019-03-27T16:49:56.861Z,165639.31
2019-03-27T16:52:25.749Z,165639.31
2019-03-27T16:54:54.688Z,165636.67
2019-03-27T16:57:23.651Z,165585.92
2019-03-27T16:59:53.107Z,165583.28
2019-03-27T17:02:22.135Z,165583.28
2019-03-27T17:04:51.070Z,165623.28
2019-03-27T17:07:19.977Z,165619.30
2019-03-27T17:09:48.840Z,165592.62
2019-03-27T17:12:17.791Z,165593.97
2019-03-27T17:14:46.797Z,165588.63
2019-03-27T17:17:15.756Z,165583.28
2019-03-27T17:19:44.987Z,165573.94
2019-03-27T17:22:19.705Z,165563.25
2019-03-27T17:24:44.819Z,165569.94
2019-03-27T17:27:13.903Z,165577.94
2019-03-27T17:29:42.907Z,165565.91
2019-03-27T17:32:11.866Z,165559.25
2019-03-27T17:34:40.914Z,165549.91
2019-03-27T17:37:10.777Z,165564.59
2019-03-27T17:39:39.712Z,165584.58
2019-03-27T17:42:08.655Z,165589.92
2019-03-27T17:44:37.680Z,165583.28
2019-03-27T17:47:06.943Z,165593.97
2019-03-27T17:49:35.843Z,165563.25
2019-03-27T17:52:04.871Z,165583.28
2019-03-27T17:54:33.757Z,165555.27
2019-03-27T17:57:02.675Z,165539.23
2019-03-27T17:59:31.676Z,165571.25
2019-03-27T18:02:00.715Z,165564.59
2019-03-27T18:04:29.871Z,165565.91
2019-03-27T18:06:58.818Z,165564.59
2019-03-27T18:09:27.728Z,165557.91
2019-03-27T18:11:56.655Z,165543.22
2019-03-27T18:14:25.774Z,165561.91
2019-03-27T18:16:54.772Z,165581.94
2019-03-27T18:19:23.842Z,165552.56
2019-03-27T18:22:06.780Z,165548.56
2019-03-27T18:24:24.000Z,165579.28
2019-03-27T18:26:52.979Z,165564.59
2019-03-27T18:29:21.966Z,165581.94
2019-03-27T18:31:50.899Z,165577.94
2019-03-27T18:34:20.029Z,165555.27
2019-03-27T18:36:49.067Z,165555.27
2019-03-27T18:39:18.176Z,165561.91
2019-03-27T18:41:47.212Z,165545.92
2019-03-27T18:44:16.248Z,165556.56
2019-03-27T18:46:45.317Z,165540.58
2019-03-27T18:49:14.253Z,165545.92
2019-03-27T18:51:43.154Z,165551.22
2019-03-27T18:54:12.540Z,165555.27
2019-03-27T18:56:41.421Z,165556.56
2019-03-27T18:59:10.388Z,165521.84
2019-03-27T19:01:39.279Z,165531.25
2019-03-27T19:04:08.200Z,165529.89
2019-03-27T19:06:37.194Z,165551.22
2019-03-27T19:09:08.040Z,165548.56
2019-03-27T19:11:36.963Z,165545.92
2019-03-27T19:14:06.104Z,165551.22
2019-03-27T19:16:35.054Z,165513.86
2019-03-27T19:19:04.110Z,165543.22
2019-03-27T19:21:33.090Z,165535.23
2019-03-27T19:24:13.528Z,165519.20
2019-03-27T19:26:34.268Z,165501.88
2019-03-27T19:29:03.277Z,165513.86
2019-03-27T19:31:32.307Z,165517.86
2019-03-27T19:34:01.401Z,165532.53
2019-03-27T19:36:30.364Z,165532.53
2019-03-27T19:38:59.304Z,165552.56
2019-03-27T19:41:28.742Z,165524.55
2019-03-27T19:43:58.403Z,165531.25
2019-03-27T19:46:27.422Z,165519.20
2019-03-27T19:48:56.963Z,165507.22
2019-03-27T19:51:25.919Z,165495.19
2019-03-27T19:53:55.023Z,165512.50
2019-03-27T19:56:24.041Z,165495.19
2019-03-27T19:58:53.098Z,165484.50
2019-03-27T20:01:21.999Z,165492.53
2019-03-27T20:03:51.066Z,165511.22
2019-03-27T20:06:20.323Z,165500.53
2019-03-27T20:10:02.526Z,165519.20
2019-03-27T20:12:31.453Z,165525.91
2019-03-27T20:15:11.757Z,165527.19
2019-03-27T20:17:33.052Z,165511.22
2019-03-27T20:20:02.295Z,165479.16
2019-03-27T20:22:31.203Z,165472.52
2019-03-27T20:25:00.174Z,165467.17
2019-03-27T20:27:29.686Z,165463.17
2019-03-27T20:29:58.679Z,165501.88
2019-03-27T20:32:27.597Z,165495.19
2019-03-27T20:34:56.658Z,165460.48
2019-03-27T20:37:25.546Z,165471.17
2019-03-27T20:39:54.465Z,165485.84
2019-03-27T20:42:23.434Z,165507.22
2019-03-27T20:44:52.367Z,165489.84
2019-03-27T20:47:21.454Z,165509.88
2019-03-27T20:49:50.811Z,165484.50
2019-03-27T20:52:20.098Z,165469.81
2019-03-27T20:54:55.044Z,165472.52
2019-03-27T20:57:19.974Z,165459.19
2019-03-27T20:59:49.294Z,165481.84
2019-03-27T21:02:20.329Z,165479.16
2019-03-27T21:04:49.193Z,165496.53
2019-03-27T21:07:18.325Z,165487.19
2019-03-27T21:09:47.779Z,165489.84
2019-03-27T21:12:16.653Z,165487.19
2019-03-27T21:14:45.583Z,165492.53
2019-03-27T21:17:14.580Z,165471.17
2019-03-27T21:19:46.965Z,165479.16
2019-03-27T21:22:15.879Z,165465.83
2019-03-27T21:24:45.019Z,165473.81
2019-03-27T21:27:16.763Z,165484.50
2019-03-27T21:29:44.955Z,165468.52
2019-03-27T21:32:13.826Z,165459.19
2019-03-27T21:34:42.861Z,165412.45
2019-03-27T21:37:11.951Z,165431.12
2019-03-27T21:39:41.187Z,165464.47
2019-03-27T21:42:10.152Z,165448.50
2019-03-27T21:44:39.353Z,165435.17
2019-03-27T21:47:08.392Z,165447.16
2019-03-27T21:49:37.355Z,165460.48
2019-03-27T21:52:06.297Z,165471.17
2019-03-27T21:54:35.286Z,165448.50
2019-03-27T21:57:04.219Z,165452.50
2019-03-27T21:59:33.191Z,165417.80
2019-03-27T22:02:03.025Z,165437.81
2019-03-27T22:04:32.830Z,165464.47
2019-03-27T22:07:01.745Z,165463.17
2019-03-27T22:09:30.772Z,165455.14
2019-03-27T22:11:59.705Z,165431.12
2019-03-27T22:14:28.667Z,165429.83
2019-03-27T22:16:57.648Z,165457.84
2019-03-27T22:19:27.113Z,165449.80
2019-03-27T22:21:56.055Z,165436.47
2019-03-27T22:24:24.956Z,165415.14
2019-03-27T22:26:53.911Z,165417.80
2019-03-27T22:29:22.939Z,165436.47
2019-03-27T22:31:52.150Z,165452.50
2019-03-27T22:34:21.311Z,165417.80
2019-03-27T22:36:50.277Z,165431.12
2019-03-27T22:39:19.336Z,165396.48
2019-03-27T22:41:48.315Z,165421.78
2019-03-27T22:44:17.605Z,165420.48
2019-03-27T22:46:46.628Z,165409.81
2019-03-27T22:49:15.555Z,165400.47
2019-03-27T22:51:44.510Z,165423.14
2019-03-27T22:54:13.696Z,165423.14
2019-03-27T22:56:42.637Z,165431.12
2019-03-27T22:59:11.744Z,165428.47
2019-03-27T23:01:45.143Z,165404.47
2019-03-27T23:04:14.282Z,165405.81
2019-03-27T23:06:43.213Z,165399.12
2019-03-27T23:09:12.141Z,165388.44
2019-03-27T23:11:41.046Z,165415.14
2019-03-27T23:14:10.084Z,165383.09
2019-03-27T23:16:39.108Z,165356.44
2019-03-27T23:19:08.329Z,165368.42
2019-03-27T23:21:37.325Z,165393.78
2019-03-27T23:24:06.366Z,165364.44
2019-03-27T23:26:35.341Z,165377.75
2019-03-27T23:29:04.432Z,165357.78
2019-03-27T23:31:33.425Z,165381.80
2019-03-27T23:34:02.676Z,165364.44
2019-03-27T23:36:31.729Z,165357.78
2019-03-27T23:39:00.666Z,165381.80
2019-03-27T23:41:29.665Z,165377.75
2019-03-27T23:43:58.582Z,165375.11
2019-03-27T23:46:27.608Z,165348.45
2019-03-27T23:48:56.646Z,165351.09
2019-03-27T23:51:25.604Z,165332.38
2019-03-27T23:53:54.608Z,165325.69
2019-03-27T23:56:23.669Z,165304.38
2019-03-27T23:58:53.085Z,165337.72
